Terminal Aerodrome Forecast
Issued by NWS Wichita, KS

Home | Current Version | Previous Version | Text Only | Print | Product List | Glossary Off
Versions: 1 2 3 4 5 6 7 8 9 10 11 12

000
FTUS43 KICT 201728
TAFICT
TAF
KICT 201728Z 2018/2118 11010KT P6SM FEW250
     FM210500 09008KT P6SM OVC015
     FM210900 07008KT P6SM -FZDZ OVC009
     FM211300 09006KT P6SM -DZ OVC005=

USA.gov is the U.S. government's official web portal to all federal, state and local government web resources and services.